createdAt,value
2023-08-05T00:03:42.189Z,19.59
2023-08-05T00:08:45.007Z,19.56
2023-08-05T00:13:46.530Z,19.51
2023-08-05T00:18:47.977Z,19.47
2023-08-05T00:23:49.552Z,19.45
2023-08-05T00:28:51.017Z,19.41
2023-08-05T00:33:52.590Z,19.35
2023-08-05T00:38:54.027Z,19.34
2023-08-05T00:43:55.482Z,19.32
2023-08-05T00:48:57.254Z,19.29
2023-08-05T00:53:58.866Z,19.23
2023-08-05T00:59:00.521Z,19.21
2023-08-05T01:04:02.008Z,19.18
2023-08-05T01:09:03.603Z,19.17
2023-08-05T01:14:05.080Z,19.13
2023-08-05T01:19:15.033Z,19.09
2023-08-05T01:24:19.280Z,19.06
2023-08-05T01:29:20.805Z,19.03
2023-08-05T01:34:22.536Z,18.97
2023-08-05T01:39:24.093Z,18.96
2023-08-05T01:44:25.508Z,18.91
2023-08-05T01:49:26.967Z,18.88
2023-08-05T01:54:28.490Z,18.87
2023-08-05T01:59:29.922Z,18.85
2023-08-05T02:04:31.392Z,18.80
2023-08-05T02:09:32.830Z,18.76
2023-08-05T02:14:34.653Z,18.76
2023-08-05T02:19:36.143Z,18.70
2023-08-05T02:24:37.632Z,18.69
2023-08-05T02:29:39.496Z,18.67
2023-08-05T02:34:40.964Z,18.64
2023-08-05T02:39:42.605Z,18.60
2023-08-05T02:44:44.094Z,18.57
2023-08-05T02:49:45.607Z,18.52
2023-08-05T02:54:47.065Z,18.47
2023-08-05T02:59:48.740Z,18.42
2023-08-05T03:04:50.199Z,18.37
2023-08-05T03:09:51.680Z,18.33
2023-08-05T03:14:53.203Z,18.23
2023-08-05T03:19:54.950Z,18.23
2023-08-05T03:24:56.452Z,18.19
2023-08-05T03:29:57.936Z,18.16
2023-08-05T03:34:59.414Z,18.11
2023-08-05T03:40:00.902Z,18.08
2023-08-05T03:45:02.382Z,18.04
2023-08-05T03:50:04.747Z,18.06
2023-08-05T03:55:06.677Z,18.00
2023-08-05T04:00:10.569Z,18.00
2023-08-05T04:05:12.061Z,17.98
2023-08-05T04:10:14.365Z,17.98
2023-08-05T04:15:17.976Z,17.97
2023-08-05T04:20:19.468Z,17.94
2023-08-05T04:25:20.993Z,17.94
2023-08-05T04:30:22.460Z,17.93
2023-08-05T04:35:23.973Z,17.96
2023-08-05T04:40:25.433Z,17.96
2023-08-05T04:45:26.961Z,17.96
2023-08-05T04:50:28.594Z,17.95
2023-08-05T04:55:30.036Z,17.93
2023-08-05T05:00:31.490Z,17.92
2023-08-05T05:05:34.829Z,17.96
2023-08-05T05:10:36.429Z,17.95
2023-08-05T05:15:38.040Z,17.96
2023-08-05T05:20:39.507Z,17.98
2023-08-05T05:25:41.033Z,17.99
2023-08-05T05:30:42.595Z,17.98
2023-08-05T05:35:44.091Z,18.05
2023-08-05T05:40:45.579Z,18.06
2023-08-05T05:45:47.875Z,18.13
2023-08-05T05:50:52.642Z,18.13
2023-08-05T05:55:56.822Z,18.16
2023-08-05T06:00:58.391Z,18.19
2023-08-05T06:06:00.241Z,18.19
2023-08-05T06:11:03.759Z,18.23
2023-08-05T06:16:06.224Z,18.27
2023-08-05T06:21:07.897Z,18.31
2023-08-05T06:26:09.421Z,18.35
2023-08-05T06:31:11.067Z,18.41
2023-08-05T06:36:12.642Z,18.43
2023-08-05T06:41:14.122Z,18.48
2023-08-05T06:46:15.932Z,18.54
2023-08-05T06:51:17.514Z,18.54
2023-08-05T06:56:19.011Z,18.61
2023-08-05T07:01:20.576Z,18.65
2023-08-05T07:06:22.105Z,18.69
2023-08-05T07:11:23.591Z,18.73
2023-08-05T07:16:25.185Z,18.76
2023-08-05T07:21:26.764Z,18.78
2023-08-05T07:26:28.246Z,18.81
2023-08-05T07:31:29.782Z,18.81
2023-08-05T07:36:32.012Z,18.86
2023-08-05T07:41:33.477Z,18.90
2023-08-05T07:46:37.263Z,18.94
2023-08-05T07:51:40.560Z,18.97
2023-08-05T07:56:43.217Z,19.01
2023-08-05T08:01:46.666Z,19.06
2023-08-05T08:06:48.592Z,19.10
2023-08-05T08:11:50.465Z,19.13
2023-08-05T08:16:52.167Z,19.19
2023-08-05T08:21:53.813Z,19.26
2023-08-05T08:26:55.513Z,19.31
2023-08-05T08:31:57.059Z,19.38
2023-08-05T08:36:58.651Z,19.45
2023-08-05T08:42:00.352Z,19.52
2023-08-05T08:47:02.007Z,19.58
2023-08-05T08:52:05.033Z,19.64
2023-08-05T08:57:07.185Z,19.68
2023-08-05T09:02:13.017Z,19.74
2023-08-05T09:07:14.509Z,19.82
2023-08-05T09:12:16.210Z,19.86
2023-08-05T09:17:17.691Z,19.97
2023-08-05T09:22:19.138Z,20.05
2023-08-05T09:27:20.657Z,20.15
2023-08-05T09:32:32.621Z,20.23
2023-08-05T09:37:40.852Z,20.34
2023-08-05T09:42:43.028Z,20.42
2023-08-05T09:47:48.569Z,20.51
2023-08-05T09:52:53.324Z,20.58
2023-08-05T09:57:55.663Z,20.68
2023-08-05T10:02:58.528Z,20.75
2023-08-05T10:08:01.118Z,20.84
2023-08-05T10:13:15.499Z,20.88
2023-08-05T10:18:18.959Z,20.92
2023-08-05T10:23:24.685Z,20.95
2023-08-05T10:28:29.053Z,20.96
2023-08-05T10:33:30.693Z,20.96
2023-08-05T10:38:43.060Z,21.00
2023-08-05T10:43:44.545Z,21.02
2023-08-05T10:48:49.551Z,21.02
2023-08-05T10:53:56.798Z,21.02
2023-08-05T10:59:02.404Z,21.01
2023-08-05T11:04:28.451Z,20.99
2023-08-05T11:09:35.848Z,21.00
2023-08-05T11:14:38.083Z,21.02
2023-08-05T11:19:56.466Z,21.02
2023-08-05T11:25:02.729Z,21.04
2023-08-05T11:30:14.546Z,21.09
2023-08-05T11:35:16.140Z,21.08
2023-08-05T11:40:17.700Z,21.13
2023-08-05T11:45:19.333Z,21.15
2023-08-05T11:50:20.824Z,21.19
2023-08-05T11:55:22.414Z,21.21
2023-08-05T12:00:24.868Z,21.23
2023-08-05T12:05:26.452Z,21.25
2023-08-05T12:10:28.592Z,21.27
2023-08-05T12:15:30.794Z,21.30
2023-08-05T12:20:37.500Z,21.31
2023-08-05T12:25:39.114Z,21.35
2023-08-05T12:30:40.562Z,21.36
2023-08-05T12:35:42.109Z,21.35
2023-08-05T12:40:43.600Z,21.36
2023-08-05T12:45:45.120Z,21.37
2023-08-05T12:50:51.325Z,21.38
2023-08-05T12:55:53.065Z,21.39
2023-08-05T13:00:54.668Z,21.38
2023-08-05T13:05:56.319Z,21.43
2023-08-05T13:10:57.781Z,21.45
2023-08-05T13:15:59.270Z,21.47
2023-08-05T13:21:00.921Z,21.49
2023-08-05T13:26:02.462Z,21.52
2023-08-05T13:31:04.949Z,21.51
2023-08-05T13:36:06.509Z,21.51
2023-08-05T13:41:08.041Z,21.53
2023-08-05T13:46:10.631Z,21.56
2023-08-05T13:51:12.293Z,21.56
2023-08-05T13:56:13.906Z,21.59
2023-08-05T14:01:16.337Z,21.61
2023-08-05T14:06:18.678Z,21.62
2023-08-05T14:11:20.202Z,21.63
2023-08-05T14:16:21.758Z,21.66
2023-08-05T14:21:24.093Z,21.67
2023-08-05T14:26:25.645Z,21.69
2023-08-05T14:31:27.150Z,21.70
2023-08-05T14:36:28.649Z,21.70
2023-08-05T14:41:31.884Z,21.71
2023-08-05T14:46:33.438Z,21.70
2023-08-05T14:51:34.987Z,21.69
2023-08-05T14:56:36.453Z,21.70
2023-08-05T15:01:38.329Z,21.69
2023-08-05T15:06:39.812Z,21.69
2023-08-05T15:11:41.320Z,21.67
2023-08-05T15:16:42.841Z,21.66
2023-08-05T15:21:44.287Z,21.64
2023-08-05T15:26:45.894Z,21.62
2023-08-05T15:31:50.185Z,21.61
2023-08-05T15:36:52.003Z,21.59
2023-08-05T15:41:54.511Z,21.59
2023-08-05T15:46:56.186Z,21.55
2023-08-05T15:51:58.461Z,21.53
2023-08-05T15:57:04.405Z,21.50
2023-08-05T16:02:06.736Z,21.44
2023-08-05T16:07:08.287Z,21.43
2023-08-05T16:12:10.512Z,21.38
2023-08-05T16:17:11.978Z,21.33
2023-08-05T16:22:15.107Z,21.31
2023-08-05T16:27:17.548Z,21.27
2023-08-05T16:32:19.112Z,21.20
2023-08-05T16:37:20.792Z,21.19
2023-08-05T16:42:22.237Z,21.14
2023-08-05T16:47:23.756Z,21.07
2023-08-05T16:52:25.277Z,21.04
2023-08-05T17:02:28.541Z,20.97
2023-08-05T17:07:30.173Z,20.91
2023-08-05T17:12:31.644Z,20.84
2023-08-05T17:17:34.173Z,20.81
2023-08-05T17:22:38.780Z,20.76
2023-08-05T17:27:42.112Z,20.69
2023-08-05T17:32:44.708Z,20.64
2023-08-05T17:37:46.286Z,20.55
2023-08-05T17:42:49.861Z,20.53
2023-08-05T17:47:51.489Z,20.47
2023-08-05T17:52:53.045Z,20.43
2023-08-05T17:57:54.489Z,20.37
2023-08-05T18:02:56.036Z,20.32
2023-08-05T18:07:58.369Z,20.24
2023-08-05T18:12:59.809Z,20.23
2023-08-05T18:18:02.947Z,20.16
2023-08-05T18:23:04.787Z,20.13
2023-08-05T18:28:06.320Z,20.06
2023-08-05T18:33:07.787Z,20.02
2023-08-05T18:38:09.394Z,19.98
2023-08-05T18:43:10.928Z,19.93
2023-08-05T18:48:12.634Z,19.85
2023-08-05T18:53:14.212Z,19.84
2023-08-05T18:58:16.064Z,19.77
2023-08-05T19:03:17.545Z,19.72
2023-08-05T19:08:19.053Z,19.69
2023-08-05T19:13:20.531Z,19.65
2023-08-05T19:18:21.971Z,19.57
2023-08-05T19:23:23.407Z,19.55
2023-08-05T19:28:24.994Z,19.51
2023-08-05T19:33:26.454Z,19.49
2023-08-05T19:38:27.930Z,19.47
2023-08-05T19:43:29.691Z,19.41
2023-08-05T19:48:31.136Z,19.39
2023-08-05T19:53:33.577Z,19.35
2023-08-05T19:58:35.110Z,19.29
2023-08-05T20:03:36.826Z,19.28
2023-08-05T20:08:38.312Z,19.24
2023-08-05T20:13:39.742Z,19.21
2023-08-05T20:18:41.256Z,19.20
2023-08-05T20:23:42.746Z,19.16
2023-08-05T20:28:44.279Z,19.14
2023-08-05T20:33:45.765Z,19.10
2023-08-05T20:38:47.249Z,19.10
2023-08-05T20:43:48.868Z,19.09
2023-08-05T20:48:50.435Z,19.04
2023-08-05T20:53:51.895Z,19.01
2023-08-05T20:58:53.321Z,18.98
2023-08-05T21:03:55.012Z,18.95
2023-08-05T21:08:56.552Z,18.93
2023-08-05T21:13:58.065Z,18.92
2023-08-05T21:18:59.756Z,18.86
2023-08-05T21:24:01.624Z,18.86
2023-08-05T21:29:03.189Z,18.80
2023-08-05T21:34:06.036Z,18.79
2023-08-05T21:39:07.518Z,18.77
2023-08-05T21:44:08.950Z,18.74
2023-08-05T21:49:10.642Z,18.71
2023-08-05T21:54:12.145Z,18.69
2023-08-05T21:59:13.633Z,18.65
2023-08-05T22:04:15.143Z,18.64
2023-08-05T22:09:16.591Z,18.59
2023-08-05T22:14:18.036Z,18.59
2023-08-05T22:19:19.853Z,18.59
2023-08-05T22:24:34.715Z,18.57
2023-08-05T22:29:41.242Z,18.53
2023-08-05T22:34:43.085Z,18.52
2023-08-05T22:39:44.544Z,18.50
2023-08-05T22:44:46.145Z,18.48
2023-08-05T22:49:47.799Z,18.44
2023-08-05T22:54:49.304Z,18.46
2023-08-05T22:59:53.961Z,18.44
2023-08-05T23:04:55.434Z,18.41
2023-08-05T23:09:57.058Z,18.40
2023-08-05T23:14:58.493Z,18.38
2023-08-05T23:19:59.933Z,18.36
2023-08-05T23:25:01.399Z,18.35
2023-08-05T23:30:02.932Z,18.33
2023-08-05T23:35:04.724Z,18.31
2023-08-05T23:40:07.029Z,18.29
2023-08-05T23:45:08.851Z,18.30
2023-08-05T23:50:10.629Z,18.25
2023-08-05T23:55:12.166Z,18.27
